Swayzee, Indiana
Current Conditions -  °F | °C
As of 3:35 AM on Tuesday 21 Oct 2014 (Local Time) from KMZZ Reporting Station
Scattered Clouds Scattered Clouds  
Wind Chill: 47°   Ceiling: Unl
Heat Index: 47°   Visibility: 10mi
Dew Point: 44°   Wind: 3mph
Humidity: 89%   Direction: 320°NW
Pressure: 29.97"   Gusts: NA
Location:  40.51°N, 85.83°W
Report Text: KMZZ 210735Z AUTO 32003KT 10SM SCT017 SCT060 08/07 A2997 RMK AO2 T00830066
Loading
Personal Weather Stations






























Interactive Weather Map New forecast layout! Learn more

10-Day Weather Forecast

Advertisements
Track Severe Weather on mobile